sensor_id;sensor_type;location;lat;lon;timestamp;pressure;altitude;pressure_sealevel;temperature;humidity
48624;BME280;34422;45.802;16.114;2023-04-24T00:01:22;99504.28;;;13.27;100.00
48624;BME280;34422;45.802;16.114;2023-04-24T00:03:48;99504.13;;;13.34;98.49
48624;BME280;34422;45.802;16.114;2023-04-24T00:06:15;99493.34;;;13.39;97.19
48624;BME280;34422;45.802;16.114;2023-04-24T00:08:43;99490.09;;;13.42;97.05
48624;BME280;34422;45.802;16.114;2023-04-24T00:11:10;99474.78;;;13.52;95.78
48624;BME280;34422;45.802;16.114;2023-04-24T00:13:37;99478.47;;;13.63;95.44
48624;BME280;34422;45.802;16.114;2023-04-24T00:16:04;99466.00;;;13.67;94.10
48624;BME280;34422;45.802;16.114;2023-04-24T00:18:32;99462.84;;;13.75;92.02
48624;BME280;34422;45.802;16.114;2023-04-24T00:20:59;99461.31;;;13.84;91.81
48624;BME280;34422;45.802;16.114;2023-04-24T00:23:26;99447.97;;;13.83;92.60
48624;BME280;34422;45.802;16.114;2023-04-24T00:25:53;99452.00;;;13.80;91.53
48624;BME280;34422;45.802;16.114;2023-04-24T00:28:19;99447.16;;;13.82;92.07
48624;BME280;34422;45.802;16.114;2023-04-24T00:30:46;99452.47;;;13.72;93.50
48624;BME280;34422;45.802;16.114;2023-04-24T00:33:13;99452.41;;;13.67;96.17
48624;BME280;34422;45.802;16.114;2023-04-24T00:35:40;99448.56;;;13.63;97.40
48624;BME280;34422;45.802;16.114;2023-04-24T00:38:07;99437.28;;;13.55;97.84
48624;BME280;34422;45.802;16.114;2023-04-24T00:40:33;99437.13;;;13.61;96.36
48624;BME280;34422;45.802;16.114;2023-04-24T00:43:01;99442.63;;;13.66;94.68
48624;BME280;34422;45.802;16.114;2023-04-24T00:45:28;99440.44;;;13.68;96.00
48624;BME280;34422;45.802;16.114;2023-04-24T00:47:55;99434.47;;;13.66;96.70
48624;BME280;34422;45.802;16.114;2023-04-24T00:50:22;99425.78;;;13.69;94.77
48624;BME280;34422;45.802;16.114;2023-04-24T00:52:50;99413.25;;;13.68;94.38
48624;BME280;34422;45.802;16.114;2023-04-24T00:55:17;99417.06;;;13.67;96.55
48624;BME280;34422;45.802;16.114;2023-04-24T00:57:45;99412.75;;;13.71;95.39
48624;BME280;34422;45.802;16.114;2023-04-24T01:00:12;99418.19;;;13.71;94.78
48624;BME280;34422;45.802;16.114;2023-04-24T01:02:41;99404.34;;;13.73;96.05
48624;BME280;34422;45.802;16.114;2023-04-24T01:05:12;99408.72;;;13.74;95.68
48624;BME280;34422;45.802;16.114;2023-04-24T01:07:40;99413.78;;;13.65;97.44
48624;BME280;34422;45.802;16.114;2023-04-24T01:10:10;99401.69;;;13.56;97.66
48624;BME280;34422;45.802;16.114;2023-04-24T01:12:38;99398.97;;;13.56;97.30
48624;BME280;34422;45.802;16.114;2023-04-24T01:15:05;99392.72;;;13.56;97.11
48624;BME280;34422;45.802;16.114;2023-04-24T01:17:33;99400.13;;;13.60;96.72
48624;BME280;34422;45.802;16.114;2023-04-24T01:20:00;99387.59;;;13.59;96.09
48624;BME280;34422;45.802;16.114;2023-04-24T01:22:27;99383.69;;;13.50;98.61
48624;BME280;34422;45.802;16.114;2023-04-24T01:24:54;99385.84;;;13.48;100.00
48624;BME280;34422;45.802;16.114;2023-04-24T01:27:20;99381.13;;;13.38;100.00
48624;BME280;34422;45.802;16.114;2023-04-24T01:29:47;99378.81;;;13.30;100.00
48624;BME280;34422;45.802;16.114;2023-04-24T01:32:15;99386.72;;;13.32;100.00
48624;BME280;34422;45.802;16.114;2023-04-24T01:34:42;99380.13;;;13.28;100.00
48624;BME280;34422;45.802;16.114;2023-04-24T01:37:09;99376.34;;;13.29;100.00
48624;BME280;34422;45.802;16.114;2023-04-24T01:39:36;99374.66;;;13.23;100.00
48624;BME280;34422;45.802;16.114;2023-04-24T01:42:04;99367.50;;;13.16;100.00
48624;BME280;34422;45.802;16.114;2023-04-24T01:44:33;99368.56;;;13.15;100.00
48624;BME280;34422;45.802;16.114;2023-04-24T01:47:01;99376.81;;;13.21;100.00
48624;BME280;34422;45.802;16.114;2023-04-24T01:49:28;99371.28;;;13.15;100.00
48624;BME280;34422;45.802;16.114;2023-04-24T01:51:54;99364.69;;;13.11;100.00
48624;BME280;34422;45.802;16.114;2023-04-24T01:54:21;99361.09;;;13.06;100.00
48624;BME280;34422;45.802;16.114;2023-04-24T01:56:48;99358.81;;;12.98;100.00
48624;BME280;34422;45.802;16.114;2023-04-24T01:59:16;99354.94;;;12.94;100.00
48624;BME280;34422;45.802;16.114;2023-04-24T02:01:43;99361.06;;;12.84;100.00
48624;BME280;34422;45.802;16.114;2023-04-24T02:04:10;99358.16;;;12.74;100.00
48624;BME280;34422;45.802;16.114;2023-04-24T02:06:37;99356.22;;;12.69;100.00
48624;BME280;34422;45.802;16.114;2023-04-24T02:09:03;99341.91;;;12.57;100.00
48624;BME280;34422;45.802;16.114;2023-04-24T02:11:30;99349.25;;;12.57;100.00
48624;BME280;34422;45.802;16.114;2023-04-24T02:13:57;99335.69;;;12.57;100.00
48624;BME280;34422;45.802;16.114;2023-04-24T02:16:24;99339.34;;;12.67;100.00
48624;BME280;34422;45.802;16.114;2023-04-24T02:18:51;99332.69;;;12.58;100.00
48624;BME280;34422;45.802;16.114;2023-04-24T02:21:17;99342.22;;;12.61;100.00
48624;BME280;34422;45.802;16.114;2023-04-24T02:23:44;99335.50;;;12.46;100.00
48624;BME280;34422;45.802;16.114;2023-04-24T02:26:11;99324.16;;;12.33;100.00
48624;BME280;34422;45.802;16.114;2023-04-24T02:28:38;99336.06;;;12.32;100.00
48624;BME280;34422;45.802;16.114;2023-04-24T02:31:04;99335.09;;;12.21;100.00
48624;BME280;34422;45.802;16.114;2023-04-24T02:33:32;99333.75;;;12.07;100.00
48624;BME280;34422;45.802;16.114;2023-04-24T02:35:59;99335.41;;;12.08;100.00
48624;BME280;34422;45.802;16.114;2023-04-24T02:38:26;99339.19;;;12.07;100.00
48624;BME280;34422;45.802;16.114;2023-04-24T02:40:52;99332.22;;;12.11;100.00
48624;BME280;34422;45.802;16.114;2023-04-24T02:43:19;99335.50;;;12.13;100.00
48624;BME280;34422;45.802;16.114;2023-04-24T02:45:46;99324.81;;;12.06;100.00
48624;BME280;34422;45.802;16.114;2023-04-24T02:48:13;99322.19;;;12.12;100.00
48624;BME280;34422;45.802;16.114;2023-04-24T02:50:40;99328.91;;;12.09;100.00
48624;BME280;34422;45.802;16.114;2023-04-24T02:53:07;99329.59;;;12.16;100.00
48624;BME280;34422;45.802;16.114;2023-04-24T02:55:33;99325.78;;;12.17;100.00
48624;BME280;34422;45.802;16.114;2023-04-24T02:58:00;99321.13;;;12.13;100.00
48624;BME280;34422;45.802;16.114;2023-04-24T03:00:27;99323.00;;;12.12;100.00
48624;BME280;34422;45.802;16.114;2023-04-24T03:02:54;99324.66;;;12.13;100.00
48624;BME280;34422;45.802;16.114;2023-04-24T03:05:21;99322.31;;;12.05;100.00
48624;BME280;34422;45.802;16.114;2023-04-24T03:07:48;99323.97;;;12.06;100.00
48624;BME280;34422;45.802;16.114;2023-04-24T03:10:14;99303.44;;;12.10;100.00
48624;BME280;34422;45.802;16.114;2023-04-24T03:12:41;99302.22;;;12.01;100.00
48624;BME280;34422;45.802;16.114;2023-04-24T03:15:08;99307.13;;;12.04;100.00
48624;BME280;34422;45.802;16.114;2023-04-24T03:17:35;99306.81;;;12.00;100.00
48624;BME280;34422;45.802;16.114;2023-04-24T03:20:05;99304.81;;;11.96;100.00
48624;BME280;34422;45.802;16.114;2023-04-24T03:22:32;99308.72;;;12.00;100.00
48624;BME280;34422;45.802;16.114;2023-04-24T03:25:00;99304.94;;;12.01;100.00
48624;BME280;34422;45.802;16.114;2023-04-24T03:27:27;99303.75;;;11.97;100.00
48624;BME280;34422;45.802;16.114;2023-04-24T03:29:54;99302.13;;;11.96;100.00
48624;BME280;34422;45.802;16.114;2023-04-24T03:32:23;99310.50;;;11.94;100.00
48624;BME280;34422;45.802;16.114;2023-04-24T03:34:50;99301.94;;;11.86;100.00
48624;BME280;34422;45.802;16.114;2023-04-24T03:37:16;99299.63;;;11.78;100.00
48624;BME280;34422;45.802;16.114;2023-04-24T03:39:43;99298.94;;;11.70;100.00
48624;BME280;34422;45.802;16.114;2023-04-24T03:42:10;99298.94;;;11.70;100.00
48624;BME280;34422;45.802;16.114;2023-04-24T03:44:37;99298.34;;;11.68;100.00
48624;BME280;34422;45.802;16.114;2023-04-24T03:47:03;99300.06;;;11.58;100.00
48624;BME280;34422;45.802;16.114;2023-04-24T03:49:30;99295.34;;;11.53;100.00
48624;BME280;34422;45.802;16.114;2023-04-24T03:51:57;99297.00;;;11.54;100.00
48624;BME280;34422;45.802;16.114;2023-04-24T03:54:24;99291.47;;;11.49;100.00
48624;BME280;34422;45.802;16.114;2023-04-24T03:56:50;99296.41;;;11.52;100.00
48624;BME280;34422;45.802;16.114;2023-04-24T03:59:17;99297.59;;;11.56;100.00
48624;BME280;34422;45.802;16.114;2023-04-24T04:01:44;99296.28;;;11.59;100.00
48624;BME280;34422;45.802;16.114;2023-04-24T04:04:12;99300.41;;;11.61;100.00
48624;BME280;34422;45.802;16.114;2023-04-24T04:06:39;99298.81;;;11.65;100.00
48624;BME280;34422;45.802;16.114;2023-04-24T04:09:05;99298.94;;;11.70;100.00
48624;BME280;34422;45.802;16.114;2023-04-24T04:11:33;99305.88;;;11.78;100.00
48624;BME280;34422;45.802;16.114;2023-04-24T04:14:02;99310.09;;;11.86;100.00
48624;BME280;34422;45.802;16.114;2023-04-24T04:16:29;99299.00;;;11.87;100.00
48624;BME280;34422;45.802;16.114;2023-04-24T04:18:56;99301.47;;;11.89;100.00
48624;BME280;34422;45.802;16.114;2023-04-24T04:21:23;99302.38;;;11.94;100.00
48624;BME280;34422;45.802;16.114;2023-04-24T04:23:49;99304.09;;;12.00;100.00
48624;BME280;34422;45.802;16.114;2023-04-24T04:26:16;99296.88;;;12.06;100.00
48624;BME280;34422;45.802;16.114;2023-04-24T04:28:45;99302.97;;;12.13;100.00
48624;BME280;34422;45.802;16.114;2023-04-24T04:31:14;99315.63;;;12.24;100.00
48624;BME280;34422;45.802;16.114;2023-04-24T04:33:40;99310.00;;;12.31;100.00
48624;BME280;34422;45.802;16.114;2023-04-24T04:36:07;99314.69;;;12.35;100.00
48624;BME280;34422;45.802;16.114;2023-04-24T04:38:35;99312.66;;;12.42;100.00
48624;BME280;34422;45.802;16.114;2023-04-24T04:41:01;99325.31;;;12.54;100.00
48624;BME280;34422;45.802;16.114;2023-04-24T04:43:29;99318.88;;;12.60;100.00
48624;BME280;34422;45.802;16.114;2023-04-24T04:45:57;99326.53;;;12.63;100.00
48624;BME280;34422;45.802;16.114;2023-04-24T04:48:24;99333.69;;;12.69;100.00
48624;BME280;34422;45.802;16.114;2023-04-24T04:50:51;99334.31;;;12.76;100.00
48624;BME280;34422;45.802;16.114;2023-04-24T04:53:17;99325.00;;;12.89;100.00
48624;BME280;34422;45.802;16.114;2023-04-24T04:55:44;99327.22;;;12.92;100.00
48624;BME280;34422;45.802;16.114;2023-04-24T04:58:12;99324.56;;;12.97;100.00
48624;BME280;34422;45.802;16.114;2023-04-24T05:00:39;99324.38;;;13.03;100.00
48624;BME280;34422;45.802;16.114;2023-04-24T05:03:06;99319.59;;;13.10;100.00
48624;BME280;34422;45.802;16.114;2023-04-24T05:05:32;99322.41;;;13.15;100.00
48624;BME280;34422;45.802;16.114;2023-04-24T05:07:59;99322.41;;;13.15;100.00
48624;BME280;34422;45.802;16.114;2023-04-24T05:10:26;99324.22;;;13.10;100.00
48624;BME280;34422;45.802;16.114;2023-04-24T05:12:53;99313.50;;;13.03;100.00
48624;BME280;34422;45.802;16.114;2023-04-24T05:15:21;99320.56;;;13.21;100.00
48624;BME280;34422;45.802;16.114;2023-04-24T05:17:47;99321.75;;;13.30;100.00
48624;BME280;34422;45.802;16.114;2023-04-24T05:20:14;99315.59;;;13.35;100.00
48624;BME280;34422;45.802;16.114;2023-04-24T05:22:41;99317.00;;;13.42;100.00
48624;BME280;34422;45.802;16.114;2023-04-24T05:25:08;99314.78;;;13.61;100.00
48624;BME280;34422;45.802;16.114;2023-04-24T05:27:35;99307.88;;;13.75;100.00
48624;BME280;34422;45.802;16.114;2023-04-24T05:30:01;99322.03;;;13.77;100.00
48624;BME280;34422;45.802;16.114;2023-04-24T05:32:28;99329.28;;;13.94;100.00
48624;BME280;34422;45.802;16.114;2023-04-24T05:34:55;99337.97;;;13.96;100.00
48624;BME280;34422;45.802;16.114;2023-04-24T05:37:22;99332.25;;;14.24;100.00
48624;BME280;34422;45.802;16.114;2023-04-24T05:39:48;99337.34;;;14.15;100.00
48624;BME280;34422;45.802;16.114;2023-04-24T05:42:15;99328.31;;;14.10;100.00
48624;BME280;34422;45.802;16.114;2023-04-24T05:44:42;99337.94;;;14.17;100.00
48624;BME280;34422;45.802;16.114;2023-04-24T05:47:08;99341.25;;;13.98;100.00
48624;BME280;34422;45.802;16.114;2023-04-24T05:49:35;99339.63;;;13.97;100.00
48624;BME280;34422;45.802;16.114;2023-04-24T05:52:02;99329.47;;;13.87;100.00
48624;BME280;34422;45.802;16.114;2023-04-24T05:54:30;99339.69;;;13.75;100.00
48624;BME280;34422;45.802;16.114;2023-04-24T05:56:57;99340.03;;;13.83;100.00
48624;BME280;34422;45.802;16.114;2023-04-24T05:59:24;99338.28;;;13.99;100.00
48624;BME280;34422;45.802;16.114;2023-04-24T06:01:52;99329.56;;;13.97;100.00
48624;BME280;34422;45.802;16.114;2023-04-24T06:04:18;99329.97;;;13.84;100.00
48624;BME280;34422;45.802;16.114;2023-04-24T06:06:45;99331.16;;;13.66;100.00
48624;BME280;34422;45.802;16.114;2023-04-24T06:09:12;99330.69;;;13.74;100.00
48624;BME280;34422;45.802;16.114;2023-04-24T06:11:39;99337.25;;;13.51;100.00
48624;BME280;34422;45.802;16.114;2023-04-24T06:14:06;99335.66;;;13.34;100.00
48624;BME280;34422;45.802;16.114;2023-04-24T06:16:32;99347.91;;;13.14;100.00
48624;BME280;34422;45.802;16.114;2023-04-24T06:18:59;99337.69;;;13.22;100.00
48624;BME280;34422;45.802;16.114;2023-04-24T06:21:26;99340.19;;;13.06;100.00
48624;BME280;34422;45.802;16.114;2023-04-24T06:23:54;99337.22;;;13.08;100.00
48624;BME280;34422;45.802;16.114;2023-04-24T06:26:22;99347.59;;;13.11;100.00
48624;BME280;34422;45.802;16.114;2023-04-24T06:28:51;99340.91;;;12.80;100.00
48624;BME280;34422;45.802;16.114;2023-04-24T06:31:18;99349.88;;;13.02;100.00
48624;BME280;34422;45.802;16.114;2023-04-24T06:33:45;99352.69;;;13.07;100.00
48624;BME280;34422;45.802;16.114;2023-04-24T06:36:12;99350.03;;;13.12;100.00
48624;BME280;34422;45.802;16.114;2023-04-24T06:38:39;99349.81;;;13.36;100.00
48624;BME280;34422;45.802;16.114;2023-04-24T06:41:05;99350.78;;;13.46;100.00
48624;BME280;34422;45.802;16.114;2023-04-24T06:43:32;99344.75;;;13.66;100.00
48624;BME280;34422;45.802;16.114;2023-04-24T06:45:59;99350.41;;;13.86;100.00
48624;BME280;34422;45.802;16.114;2023-04-24T06:48:26;99339.94;;;14.00;100.00
48624;BME280;34422;45.802;16.114;2023-04-24T06:50:53;99342.78;;;14.15;100.00
48624;BME280;34422;45.802;16.114;2023-04-24T06:53:20;99349.16;;;14.26;100.00
48624;BME280;34422;45.802;16.114;2023-04-24T06:55:47;99345.00;;;14.45;100.00
48624;BME280;34422;45.802;16.114;2023-04-24T06:58:13;99350.88;;;14.37;100.00
48624;BME280;34422;45.802;16.114;2023-04-24T07:00:41;99345.19;;;14.07;100.00
48624;BME280;34422;45.802;16.114;2023-04-24T07:03:08;99340.00;;;14.10;100.00
48624;BME280;34422;45.802;16.114;2023-04-24T07:05:34;99343.13;;;13.92;100.00
48624;BME280;34422;45.802;16.114;2023-04-24T07:08:01;99353.38;;;13.85;100.00
48624;BME280;34422;45.802;16.114;2023-04-24T07:10:29;99354.59;;;13.99;100.00
48624;BME280;34422;45.802;16.114;2023-04-24T07:12:56;99349.66;;;13.96;100.00
48624;BME280;34422;45.802;16.114;2023-04-24T07:15:23;99340.03;;;13.83;100.00
48624;BME280;34422;45.802;16.114;2023-04-24T07:17:50;99349.78;;;13.79;100.00
48624;BME280;34422;45.802;16.114;2023-04-24T07:20:16;99347.50;;;13.71;100.00
48624;BME280;34422;45.802;16.114;2023-04-24T07:22:43;99344.13;;;13.86;100.00
48624;BME280;34422;45.802;16.114;2023-04-24T07:25:10;99354.84;;;13.98;100.00
48624;BME280;34422;45.802;16.114;2023-04-24T07:27:37;99341.09;;;14.09;100.00
48624;BME280;34422;45.802;16.114;2023-04-24T07:30:04;99350.22;;;14.25;100.00
48624;BME280;34422;45.802;16.114;2023-04-24T07:32:31;99343.09;;;14.19;100.00
48624;BME280;34422;45.802;16.114;2023-04-24T07:34:58;99350.28;;;14.30;100.00
48624;BME280;34422;45.802;16.114;2023-04-24T07:37:24;99347.47;;;14.20;100.00
48624;BME280;34422;45.802;16.114;2023-04-24T07:39:51;99341.13;;;14.41;100.00
48624;BME280;34422;45.802;16.114;2023-04-24T07:42:18;99347.50;;;14.25;100.00
48624;BME280;34422;45.802;16.114;2023-04-24T07:44:45;99343.63;;;14.16;100.00
48624;BME280;34422;45.802;16.114;2023-04-24T07:47:14;99345.03;;;14.23;100.00
48624;BME280;34422;45.802;16.114;2023-04-24T07:49:42;99342.56;;;14.22;100.00
48624;BME280;34422;45.802;16.114;2023-04-24T07:52:09;99345.56;;;14.47;100.00
48624;BME280;34422;45.802;16.114;2023-04-24T07:54:35;99346.38;;;14.90;100.00
48624;BME280;34422;45.802;16.114;2023-04-24T07:57:03;99343.25;;;15.13;100.00
48624;BME280;34422;45.802;16.114;2023-04-24T07:59:30;99330.72;;;15.12;100.00
48624;BME280;34422;45.802;16.114;2023-04-24T08:01:57;99338.38;;;15.20;100.00
48624;BME280;34422;45.802;16.114;2023-04-24T08:04:24;99331.69;;;15.43;100.00
48624;BME280;34422;45.802;16.114;2023-04-24T08:06:50;99335.03;;;15.55;100.00
48624;BME280;34422;45.802;16.114;2023-04-24T08:09:17;99340.75;;;15.59;100.00
48624;BME280;34422;45.802;16.114;2023-04-24T08:11:44;99333.72;;;15.88;100.00
48624;BME280;34422;45.802;16.114;2023-04-24T08:14:11;99334.34;;;16.26;100.00
48624;BME280;34422;45.802;16.114;2023-04-24T08:16:39;99337.06;;;16.61;100.00
48624;BME280;34422;45.802;16.114;2023-04-24T08:19:06;99333.25;;;16.62;100.00
48624;BME280;34422;45.802;16.114;2023-04-24T08:21:33;99344.16;;;16.73;100.00
48624;BME280;34422;45.802;16.114;2023-04-24T08:24:00;99346.34;;;16.50;100.00
48624;BME280;34422;45.802;16.114;2023-04-24T08:26:31;99345.75;;;16.99;100.00
48624;BME280;34422;45.802;16.114;2023-04-24T08:28:58;99344.63;;;17.10;100.00
48624;BME280;34422;45.802;16.114;2023-04-24T08:31:25;99335.81;;;17.33;100.00
48624;BME280;34422;45.802;16.114;2023-04-24T08:33:52;99339.16;;;17.10;100.00
48624;BME280;34422;45.802;16.114;2023-04-24T08:36:19;99326.22;;;17.36;100.00
48624;BME280;34422;45.802;16.114;2023-04-24T08:38:46;99336.16;;;17.12;100.00
48624;BME280;34422;45.802;16.114;2023-04-24T08:41:14;99321.88;;;17.30;100.00
48624;BME280;34422;45.802;16.114;2023-04-24T08:43:41;99333.69;;;17.20;100.00
48624;BME280;34422;45.802;16.114;2023-04-24T08:46:08;99334.50;;;17.11;100.00
48624;BME280;34422;45.802;16.114;2023-04-24T08:48:37;99332.50;;;17.36;100.00
48624;BME280;34422;45.802;16.114;2023-04-24T08:51:07;99337.53;;;17.09;100.00
48624;BME280;34422;45.802;16.114;2023-04-24T08:53:35;99339.59;;;17.42;100.00
48624;BME280;34422;45.802;16.114;2023-04-24T08:56:02;99329.91;;;16.96;100.00
48624;BME280;34422;45.802;16.114;2023-04-24T08:58:29;99336.47;;;17.05;100.00
48624;BME280;34422;45.802;16.114;2023-04-24T09:00:58;99334.59;;;16.70;100.00
48624;BME280;34422;45.802;16.114;2023-04-24T09:03:27;99338.41;;;16.59;100.00
48624;BME280;34422;45.802;16.114;2023-04-24T09:05:55;99339.25;;;16.34;100.00
48624;BME280;34422;45.802;16.114;2023-04-24T09:08:24;99334.88;;;16.38;100.00
48624;BME280;34422;45.802;16.114;2023-04-24T09:10:51;99334.88;;;16.58;100.00
48624;BME280;34422;45.802;16.114;2023-04-24T09:13:19;99343.63;;;16.50;100.00
48624;BME280;34422;45.802;16.114;2023-04-24T09:15:46;99341.41;;;16.57;100.00
48624;BME280;34422;45.802;16.114;2023-04-24T09:18:13;99334.91;;;16.63;100.00
48624;BME280;34422;45.802;16.114;2023-04-24T09:21:02;99339.78;;;16.56;100.00
48624;BME280;34422;45.802;16.114;2023-04-24T09:23:31;99337.34;;;16.70;100.00
48624;BME280;34422;45.802;16.114;2023-04-24T09:25:59;99336.25;;;16.35;100.00
48624;BME280;34422;45.802;16.114;2023-04-24T09:28:29;99335.97;;;16.52;100.00
48624;BME280;34422;45.802;16.114;2023-04-24T09:31:09;99338.16;;;16.76;100.00
48624;BME280;34422;45.802;16.114;2023-04-24T09:33:36;99342.47;;;16.97;100.00
48624;BME280;34422;45.802;16.114;2023-04-24T09:36:04;99343.00;;;17.09;100.00
48624;BME280;34422;45.802;16.114;2023-04-24T09:38:33;99337.84;;;17.02;100.00
48624;BME280;34422;45.802;16.114;2023-04-24T09:41:13;99341.34;;;17.13;100.00
48624;BME280;34422;45.802;16.114;2023-04-24T09:43:40;99337.00;;;17.07;100.00
48624;BME280;34422;45.802;16.114;2023-04-24T09:46:07;99341.38;;;17.08;100.00
48624;BME280;34422;45.802;16.114;2023-04-24T09:48:36;99342.47;;;16.97;100.00
48624;BME280;34422;45.802;16.114;2023-04-24T09:51:05;99341.25;;;17.38;100.00
48624;BME280;34422;45.802;16.114;2023-04-24T09:53:38;99332.81;;;17.35;100.00
48624;BME280;34422;45.802;16.114;2023-04-24T09:56:09;99350.81;;;17.41;100.00
48624;BME280;34422;45.802;16.114;2023-04-24T09:58:36;99343.34;;;17.72;100.00
48624;BME280;34422;45.802;16.114;2023-04-24T10:01:04;99347.84;;;17.97;100.00
48624;BME280;34422;45.802;16.114;2023-04-24T10:03:32;99330.16;;;17.79;100.00
48624;BME280;34422;45.802;16.114;2023-04-24T10:06:03;99337.50;;;18.28;100.00
48624;BME280;34422;45.802;16.114;2023-04-24T10:08:36;99330.06;;;18.67;100.00
48624;BME280;34422;45.802;16.114;2023-04-24T10:11:03;99339.50;;;18.85;100.00
48624;BME280;34422;45.802;16.114;2023-04-24T10:13:30;99335.94;;;19.32;100.00
48624;BME280;34422;45.802;16.114;2023-04-24T10:15:58;99334.78;;;19.38;100.00
48624;BME280;34422;45.802;16.114;2023-04-24T10:18:27;99334.06;;;18.80;99.02
48624;BME280;34422;45.802;16.114;2023-04-24T10:20:54;99330.34;;;18.95;100.00
48624;BME280;34422;45.802;16.114;2023-04-24T10:23:21;99329.56;;;18.89;100.00
48624;BME280;34422;45.802;16.114;2023-04-24T10:25:50;99325.97;;;18.65;100.00
48624;BME280;34422;45.802;16.114;2023-04-24T10:28:19;99331.13;;;18.03;100.00
48624;BME280;34422;45.802;16.114;2023-04-24T10:30:46;99333.16;;;18.22;100.00
48624;BME280;34422;45.802;16.114;2023-04-24T10:33:14;99322.84;;;18.08;100.00
48624;BME280;34422;45.802;16.114;2023-04-24T10:35:45;99329.97;;;18.09;100.00
48624;BME280;34422;45.802;16.114;2023-04-24T10:38:22;99329.22;;;18.33;100.00
48624;BME280;34422;45.802;16.114;2023-04-24T10:40:51;99328.22;;;17.20;100.00
48624;BME280;34422;45.802;16.114;2023-04-24T10:43:18;99332.13;;;16.94;100.00
48624;BME280;34422;45.802;16.114;2023-04-24T10:46:02;99332.72;;;16.65;100.00
48624;BME280;34422;45.802;16.114;2023-04-24T10:48:30;99322.31;;;16.07;100.00
48624;BME280;34422;45.802;16.114;2023-04-24T10:50:56;99329.94;;;16.15;100.00
48624;BME280;34422;45.802;16.114;2023-04-24T10:53:27;99332.16;;;16.33;100.00
48624;BME280;34422;45.802;16.114;2023-04-24T10:56:02;99332.16;;;16.38;100.00
48624;BME280;34422;45.802;16.114;2023-04-24T10:58:49;99326.13;;;16.11;100.00
48624;BME280;34422;45.802;16.114;2023-04-24T11:01:27;99335.13;;;16.26;100.00
48624;BME280;34422;45.802;16.114;2023-04-24T11:04:00;99331.31;;;16.43;100.00
48624;BME280;34422;45.802;16.114;2023-04-24T11:06:31;99323.69;;;16.70;100.00
48624;BME280;34422;45.802;16.114;2023-04-24T11:09:20;99322.59;;;16.76;100.00
48624;BME280;34422;45.802;16.114;2023-04-24T11:11:47;99322.84;;;16.54;100.00
48624;BME280;34422;45.802;16.114;2023-04-24T11:14:14;99321.53;;;16.67;100.00
48624;BME280;34422;45.802;16.114;2023-04-24T11:16:51;99322.84;;;16.90;100.00
48624;BME280;34422;45.802;16.114;2023-04-24T11:19:22;99316.00;;;16.82;100.00
48624;BME280;34422;45.802;16.114;2023-04-24T11:22:01;99318.97;;;17.01;100.00
48624;BME280;34422;45.802;16.114;2023-04-24T11:24:31;99311.94;;;16.29;100.00
48624;BME280;34422;45.802;16.114;2023-04-24T11:26:59;99317.41;;;16.29;100.00
48624;BME280;34422;45.802;16.114;2023-04-24T11:32:29;99322.28;;;15.81;100.00
48624;BME280;34422;45.802;16.114;2023-04-24T11:35:05;99316.22;;;15.64;100.00
48624;BME280;34422;45.802;16.114;2023-04-24T11:37:41;99309.56;;;15.45;100.00
48624;BME280;34422;45.802;16.114;2023-04-24T11:40:11;99304.78;;;15.72;100.00
48624;BME280;34422;45.802;16.114;2023-04-24T11:42:48;99310.13;;;15.47;100.00
48624;BME280;34422;45.802;16.114;2023-04-24T11:45:18;99305.25;;;15.44;100.00
48624;BME280;34422;45.802;16.114;2023-04-24T11:47:45;99309.53;;;15.29;100.00
48624;BME280;34422;45.802;16.114;2023-04-24T11:50:14;99301.22;;;15.04;100.00
48624;BME280;34422;45.802;16.114;2023-04-24T11:52:43;99299.88;;;15.02;100.00
48624;BME280;34422;45.802;16.114;2023-04-24T11:57:44;99290.63;;;15.08;100.00
48624;BME280;34422;45.802;16.114;2023-04-24T12:00:16;99281.63;;;15.02;100.00
48624;BME280;34422;45.802;16.114;2023-04-24T12:02:43;99285.72;;;15.05;100.00
48624;BME280;34422;45.802;16.114;2023-04-24T12:05:20;99283.81;;;15.00;100.00
48624;BME280;34422;45.802;16.114;2023-04-24T12:07:47;99287.66;;;15.09;100.00
48624;BME280;34422;45.802;16.114;2023-04-24T12:10:14;99280.66;;;15.28;100.00
48624;BME280;34422;45.802;16.114;2023-04-24T12:12:41;99274.69;;;15.47;100.00
48624;BME280;34422;45.802;16.114;2023-04-24T12:15:08;99271.69;;;15.48;100.00
48624;BME280;34422;45.802;16.114;2023-04-24T12:17:35;99267.66;;;15.61;100.00
48624;BME280;34422;45.802;16.114;2023-04-24T12:20:07;99263.84;;;15.62;100.00
48624;BME280;34422;45.802;16.114;2023-04-24T12:22:47;99259.53;;;15.71;100.00
48624;BME280;34422;45.802;16.114;2023-04-24T12:25:16;99261.16;;;15.77;100.00
48624;BME280;34422;45.802;16.114;2023-04-24T12:27:44;99257.34;;;15.88;100.00
48624;BME280;34422;45.802;16.114;2023-04-24T12:30:13;99261.19;;;15.97;100.00
48624;BME280;34422;45.802;16.114;2023-04-24T12:32:47;99265.28;;;16.20;100.00
48624;BME280;34422;45.802;16.114;2023-04-24T12:35:19;99262.81;;;16.19;100.00
48624;BME280;34422;45.802;16.114;2023-04-24T12:37:47;99254.91;;;16.17;100.00
48624;BME280;34422;45.802;16.114;2023-04-24T12:40:14;99265.50;;;16.54;100.00
48624;BME280;34422;45.802;16.114;2023-04-24T12:45:10;99241.22;;;16.53;100.00
48624;BME280;34422;45.802;16.114;2023-04-24T12:47:39;99231.06;;;16.74;100.00
48624;BME280;34422;45.802;16.114;2023-04-24T12:50:11;99228.25;;;16.99;100.00
48624;BME280;34422;45.802;16.114;2023-04-24T12:52:38;99227.03;;;17.25;100.00